Time;durP1;ratioP1;P1;durP2;ratioP2;P2;SDS_P1;SDS_P2;PMS_P1;PMS_P2;Temp;Humidity;BMP_temperature;BMP_pressure;BME280_temperature;BME280_humidity;BME280_pressure;Samples;Min_cycle;Max_cycle;Signal;HPM_P1;HPM_P2
2023/04/15 00:02:17;;;;;;;;;;;6.40;99.90;;;;;;5004638;28;20027;-68
2023/04/15 00:04:43;;;;;;;;;;;6.40;99.90;;;;;;5012172;28;19932;-69
2023/04/15 00:07:08;;;;;;;;;;;6.40;99.90;;;;;;5012522;28;20017;-69
2023/04/15 00:09:34;;;;;;;;;;;6.40;99.90;;;;;;5015879;28;20004;-69
2023/04/15 00:12:00;;;;;;;;;;;6.40;99.90;;;;;;5011140;28;21518;-69
2023/04/15 00:14:26;;;;;;;;;;;6.40;99.90;;;;;;5010953;28;19932;-69
2023/04/15 00:16:54;;;;;;;;;;;6.40;99.90;;;;;;5007540;28;19930;-69
2023/04/15 00:19:20;;;;;;;;;;;6.50;99.90;;;;;;5006671;28;19926;-69
2023/04/15 00:21:46;;;;;;;;;;;6.40;99.90;;;;;;5011214;28;20013;-68
2023/04/15 00:24:12;;;;;;;;;;;6.40;99.90;;;;;;5010996;28;19925;-69
2023/04/15 00:26:37;;;;;;;;;;;6.40;99.90;;;;;;5006809;28;19934;-69
2023/04/15 00:29:03;;;;;;;;;;;6.40;99.90;;;;;;5013509;28;20303;-69
2023/04/15 00:31:30;;;;;;;;;;;6.40;99.90;;;;;;5009509;28;19930;-69
2023/04/15 00:33:55;;;;;;;;;;;6.40;99.90;;;;;;5009977;28;20319;-69
2023/04/15 00:36:22;;;;;;;;;;;6.40;99.90;;;;;;5011882;28;20020;-68
2023/04/15 00:38:47;;;;;;;;;;;6.40;99.90;;;;;;5011351;28;19926;-69
2023/04/15 00:41:13;;;;;;;;;;;6.40;99.90;;;;;;5011194;28;19925;-68
2023/04/15 00:43:38;;;;;;;;;;;6.40;99.90;;;;;;5018612;28;19932;-69
2023/04/15 00:46:04;;;;;;;;;;;6.40;99.90;;;;;;5012754;28;19929;-69
2023/04/15 00:48:31;;;;;;;;;;;6.40;99.90;;;;;;5014376;28;20346;-69
2023/04/15 00:50:56;;;;;;;;;;;6.40;99.90;;;;;;5010546;28;19932;-69
2023/04/15 00:53:22;;;;;;;;;;;6.30;99.90;;;;;;5010113;28;19933;-69
2023/04/15 00:55:48;;;;;;;;;;;6.90;99.90;;;;;;5011441;28;19925;-69
2023/04/15 00:58:15;;;;;;;;;;;6.30;99.90;;;;;;5008134;28;20414;-68
2023/04/15 01:00:41;;;;;;;;;;;6.30;99.90;;;;;;5019727;28;19979;-69
2023/04/15 01:03:07;;;;;;;;;;;6.30;99.90;;;;;;5016728;28;19925;-69
2023/04/15 01:05:33;;;;;;;;;;;6.30;99.90;;;;;;5002066;28;20458;-69
2023/04/15 01:07:59;;;;;;;;;;;6.30;99.90;;;;;;5010888;28;20388;-69
2023/04/15 01:10:24;;;;;;;;;;;6.30;99.90;;;;;;5013748;28;19933;-69
2023/04/15 01:12:50;;;;;;;;;;;6.30;99.90;;;;;;5007283;28;19926;-69
2023/04/15 01:15:15;;;;;;;;;;;6.30;99.90;;;;;;5006639;28;20151;-70
2023/04/15 01:17:41;;;;;;;;;;;6.30;99.90;;;;;;5009170;28;19933;-70
2023/04/15 01:20:11;;;;;;;;;;;6.20;99.90;;;;;;5008468;28;19944;-69
2023/04/15 01:22:37;;;;;;;;;;;6.20;99.90;;;;;;5004901;28;20024;-69
2023/04/15 01:25:08;;;;;;;;;;;6.20;99.90;;;;;;5008361;28;20008;-69
2023/04/15 01:27:34;;;;;;;;;;;6.20;99.90;;;;;;5001875;28;20406;-70
2023/04/15 01:30:00;;;;;;;;;;;6.20;99.90;;;;;;5008761;28;19934;-69
2023/04/15 01:32:26;;;;;;;;;;;6.20;99.90;;;;;;5008926;28;19929;-70
2023/04/15 01:34:51;;;;;;;;;;;6.10;99.90;;;;;;5008982;28;20014;-69
2023/04/15 01:37:17;;;;;;;;;;;6.20;99.90;;;;;;5015339;28;19935;-70
2023/04/15 01:39:43;;;;;;;;;;;6.10;99.90;;;;;;5011786;28;20321;-70
2023/04/15 01:42:09;;;;;;;;;;;6.00;99.90;;;;;;5011789;28;20375;-69
2023/04/15 01:44:34;;;;;;;;;;;6.00;99.90;;;;;;5008686;28;19972;-69
2023/04/15 01:46:59;;;;;;;;;;;6.00;99.90;;;;;;5011805;28;19926;-70
2023/04/15 01:49:26;;;;;;;;;;;5.90;99.90;;;;;;5014045;28;19976;-69
2023/04/15 01:51:52;;;;;;;;;;;6.00;99.90;;;;;;5015922;28;19983;-70
2023/04/15 01:54:18;;;;;;;;;;;5.90;99.90;;;;;;5007343;28;20478;-69
2023/04/15 01:56:44;;;;;;;;;;;5.80;99.90;;;;;;5015612;28;19932;-69
2023/04/15 01:59:09;;;;;;;;;;;5.80;99.90;;;;;;5014816;28;19926;-69
2023/04/15 02:01:35;;;;;;;;;;;5.80;99.90;;;;;;5016267;28;20445;-69
2023/04/15 02:04:00;;;;;;;;;;;5.80;99.90;;;;;;5011662;28;19925;-69
2023/04/15 02:06:27;;;;;;;;;;;5.60;99.90;;;;;;5027041;28;19933;-69
2023/04/15 02:08:52;;;;;;;;;;;5.60;99.90;;;;;;5013378;28;19932;-70
2023/04/15 02:11:18;;;;;;;;;;;5.60;99.90;;;;;;5014011;28;19929;-68
2023/04/15 02:13:44;;;;;;;;;;;5.60;99.90;;;;;;5011150;28;19926;-68
2023/04/15 02:16:18;;;;;;;;;;;5.50;99.90;;;;;;5012184;28;19932;-69
2023/04/15 02:18:44;;;;;;;;;;;5.50;99.90;;;;;;5010741;28;21465;-70
2023/04/15 02:21:10;;;;;;;;;;;5.50;99.90;;;;;;5013872;28;19977;-70
2023/04/15 02:23:35;;;;;;;;;;;6.00;99.90;;;;;;5011974;28;20043;-69
2023/04/15 02:26:01;;;;;;;;;;;5.40;99.90;;;;;;5009495;28;19926;-69
2023/04/15 02:28:27;;;;;;;;;;;5.40;99.90;;;;;;5013347;28;19931;-69
2023/04/15 02:30:54;;;;;;;;;;;5.40;99.90;;;;;;5010719;28;20441;-68
2023/04/15 02:33:20;;;;;;;;;;;5.40;99.90;;;;;;5002443;28;19995;-68
2023/04/15 02:35:46;;;;;;;;;;;5.30;99.90;;;;;;5021249;28;20415;-69
2023/04/15 02:38:13;;;;;;;;;;;5.30;99.90;;;;;;5019239;28;19933;-68
2023/04/15 02:40:38;;;;;;;;;;;6.10;99.90;;;;;;5013752;28;19930;-68
2023/04/15 02:43:05;;;;;;;;;;;5.20;99.90;;;;;;5021686;28;19933;-69
2023/04/15 02:45:31;;;;;;;;;;;5.20;99.90;;;;;;5011855;28;19929;-69
2023/04/15 02:47:57;;;;;;;;;;;5.20;99.90;;;;;;5010712;28;20402;-69
2023/04/15 02:50:24;;;;;;;;;;;5.20;99.90;;;;;;5013688;28;19926;-69
2023/04/15 02:52:50;;;;;;;;;;;5.10;99.90;;;;;;5014230;28;20271;-68
2023/04/15 02:55:16;;;;;;;;;;;5.10;99.90;;;;;;5010778;28;19925;-69
2023/04/15 02:57:42;;;;;;;;;;;5.10;99.90;;;;;;5010990;28;20016;-69
2023/04/15 03:00:10;;;;;;;;;;;5.10;99.90;;;;;;5011935;28;20019;-68
2023/04/15 03:02:36;;;;;;;;;;;5.10;99.90;;;;;;5006452;28;19991;-69
2023/04/15 03:05:02;;;;;;;;;;;5.00;99.90;;;;;;5009172;28;20016;-69
2023/04/15 03:07:28;;;;;;;;;;;5.00;99.90;;;;;;5010997;28;19964;-69
2023/04/15 03:09:54;;;;;;;;;;;5.00;99.90;;;;;;5013257;28;19996;-68
2023/04/15 03:12:19;;;;;;;;;;;5.00;99.90;;;;;;5012256;28;19929;-68
2023/04/15 03:14:45;;;;;;;;;;;5.00;99.90;;;;;;5010244;28;20295;-69
2023/04/15 03:17:11;;;;;;;;;;;4.90;99.90;;;;;;5015618;28;19925;-69
2023/04/15 03:19:36;;;;;;;;;;;4.90;99.90;;;;;;5008835;28;19929;-71
2023/04/15 03:22:02;;;;;;;;;;;5.00;99.90;;;;;;5009202;28;19925;-70
2023/04/15 03:24:29;;;;;;;;;;;4.90;99.90;;;;;;5003495;28;19926;-69
2023/04/15 03:26:55;;;;;;;;;;;4.90;99.90;;;;;;5019359;28;20013;-69
2023/04/15 03:29:20;;;;;;;;;;;4.90;99.90;;;;;;5008315;28;19933;-70
2023/04/15 03:31:46;;;;;;;;;;;4.90;99.90;;;;;;5008778;28;19926;-70
2023/04/15 03:34:11;;;;;;;;;;;4.90;99.90;;;;;;5014609;28;20382;-70
2023/04/15 03:36:37;;;;;;;;;;;4.90;99.90;;;;;;5008338;28;19932;-70
2023/04/15 03:39:03;;;;;;;;;;;4.90;99.90;;;;;;5009538;28;19936;-69
2023/04/15 03:41:28;;;;;;;;;;;4.90;99.90;;;;;;5012202;28;20295;-69
2023/04/15 03:43:54;;;;;;;;;;;4.90;99.90;;;;;;5012719;28;19931;-70
2023/04/15 03:46:19;;;;;;;;;;;5.00;99.90;;;;;;5017655;28;19925;-70
2023/04/15 03:48:45;;;;;;;;;;;5.00;99.90;;;;;;5019493;28;20075;-69
2023/04/15 03:51:11;;;;;;;;;;;5.00;99.90;;;;;;5011382;28;19926;-70
2023/04/15 03:53:36;;;;;;;;;;;5.00;99.90;;;;;;5023483;28;20295;-70
2023/04/15 03:56:02;;;;;;;;;;;5.00;99.90;;;;;;4990927;28;19952;-70
2023/04/15 03:58:27;;;;;;;;;;;5.00;99.90;;;;;;5006027;28;20001;-69
2023/04/15 04:00:53;;;;;;;;;;;5.00;99.90;;;;;;5005181;28;19929;-70
2023/04/15 04:03:19;;;;;;;;;;;5.00;99.90;;;;;;5011512;28;19925;-70
2023/04/15 04:05:45;;;;;;;;;;;5.10;99.90;;;;;;5013811;28;20356;-69
2023/04/15 04:08:12;;;;;;;;;;;5.00;99.90;;;;;;5011677;28;20060;-69
2023/04/15 04:10:38;;;;;;;;;;;4.90;99.90;;;;;;5009438;28;19926;-70
2023/04/15 04:13:04;;;;;;;;;;;4.90;99.90;;;;;;5007242;28;20401;-69
2023/04/15 04:15:29;;;;;;;;;;;4.90;99.90;;;;;;5011276;28;19929;-69
2023/04/15 04:17:55;;;;;;;;;;;4.90;99.90;;;;;;5011224;28;20337;-70
2023/04/15 04:20:20;;;;;;;;;;;5.10;99.90;;;;;;5009845;28;20015;-70
2023/04/15 04:22:46;;;;;;;;;;;4.80;99.90;;;;;;5016306;28;19930;-70
2023/04/15 04:25:11;;;;;;;;;;;4.80;99.90;;;;;;5010476;28;20375;-69
2023/04/15 04:27:37;;;;;;;;;;;4.80;99.90;;;;;;5019301;28;19958;-70
2023/04/15 04:30:03;;;;;;;;;;;4.80;99.90;;;;;;5009717;28;19932;-69
2023/04/15 04:32:29;;;;;;;;;;;4.80;99.90;;;;;;5010606;28;20016;-69
2023/04/15 04:34:54;;;;;;;;;;;4.80;99.90;;;;;;5014774;28;20025;-69
2023/04/15 04:37:20;;;;;;;;;;;4.80;99.90;;;;;;5017448;28;20271;-70
2023/04/15 04:39:45;;;;;;;;;;;4.70;99.90;;;;;;5017367;28;19925;-70
2023/04/15 04:42:11;;;;;;;;;;;4.70;99.90;;;;;;5006562;28;19933;-70
2023/04/15 04:44:36;;;;;;;;;;;4.70;99.90;;;;;;5011462;28;20430;-70
2023/04/15 04:47:02;;;;;;;;;;;4.80;99.90;;;;;;5010245;28;19965;-70
2023/04/15 04:49:27;;;;;;;;;;;4.80;99.90;;;;;;5010998;28;19995;-69
2023/04/15 04:51:53;;;;;;;;;;;4.80;99.90;;;;;;5011093;28;19933;-69
2023/04/15 04:54:18;;;;;;;;;;;4.80;99.90;;;;;;5010469;28;19972;-69
2023/04/15 04:56:44;;;;;;;;;;;4.80;99.90;;;;;;5011318;28;19925;-69
2023/04/15 04:59:09;;;;;;;;;;;4.90;99.90;;;;;;5002985;28;19937;-69
2023/04/15 05:01:35;;;;;;;;;;;4.90;99.90;;;;;;5009869;28;20402;-69
2023/04/15 05:04:00;;;;;;;;;;;5.10;99.90;;;;;;5008364;28;19961;-69
2023/04/15 05:06:29;;;;;;;;;;;4.90;99.90;;;;;;5011984;28;19933;-69
2023/04/15 05:08:55;;;;;;;;;;;5.00;99.90;;;;;;5003747;28;20016;-69
2023/04/15 05:11:21;;;;;;;;;;;4.90;99.90;;;;;;5008564;28;19937;-69
2023/04/15 05:13:46;;;;;;;;;;;4.90;99.90;;;;;;5009403;28;20056;-69
2023/04/15 05:16:12;;;;;;;;;;;4.80;99.90;;;;;;5008206;28;20083;-69
2023/04/15 05:18:37;;;;;;;;;;;4.80;99.90;;;;;;5009805;28;19925;-69
2023/04/15 05:21:03;;;;;;;;;;;4.80;99.90;;;;;;5010521;28;19980;-69
2023/04/15 05:23:28;;;;;;;;;;;4.90;99.90;;;;;;5002056;28;19926;-69
2023/04/15 05:25:54;;;;;;;;;;;4.90;99.90;;;;;;5017200;28;19926;-69
2023/04/15 05:28:20;;;;;;;;;;;5.00;99.90;;;;;;5006142;28;20311;-69
2023/04/15 05:30:45;;;;;;;;;;;5.00;99.90;;;;;;5009482;28;19929;-69
2023/04/15 05:33:11;;;;;;;;;;;5.10;99.90;;;;;;5008456;28;19929;-69
2023/04/15 05:35:36;;;;;;;;;;;5.20;99.90;;;;;;5004787;28;19926;-69
2023/04/15 05:38:02;;;;;;;;;;;5.80;99.90;;;;;;5008539;28;20016;-69
2023/04/15 05:40:29;;;;;;;;;;;5.40;99.90;;;;;;5009352;28;19980;-69
2023/04/15 05:42:54;;;;;;;;;;;5.70;99.90;;;;;;5009631;28;20012;-69
2023/04/15 05:45:19;;;;;;;;;;;5.50;99.90;;;;;;5003419;28;20474;-69
2023/04/15 05:47:45;;;;;;;;;;;5.60;99.90;;;;;;5008376;28;19926;-69
2023/04/15 05:50:11;;;;;;;;;;;5.70;99.90;;;;;;5010256;28;19925;-69
2023/04/15 05:52:36;;;;;;;;;;;5.70;99.90;;;;;;5010736;28;20019;-69
2023/04/15 05:55:02;;;;;;;;;;;5.80;99.90;;;;;;5012011;28;19947;-69
2023/04/15 05:57:27;;;;;;;;;;;5.90;99.90;;;;;;5010418;28;20306;-69
2023/04/15 05:59:54;;;;;;;;;;;6.00;99.90;;;;;;5005957;28;20369;-69
2023/04/15 06:02:20;;;;;;;;;;;6.10;99.90;;;;;;5008556;28;19926;-69
2023/04/15 06:04:45;;;;;;;;;;;6.30;99.90;;;;;;5010060;28;19925;-69
2023/04/15 06:07:10;;;;;;;;;;;6.20;99.90;;;;;;5007183;28;19980;-69
2023/04/15 06:09:36;;;;;;;;;;;6.30;99.90;;;;;;5011522;28;19926;-69
2023/04/15 06:12:02;;;;;;;;;;;6.50;99.90;;;;;;5010809;28;20371;-69
2023/04/15 06:14:27;;;;;;;;;;;6.50;99.90;;;;;;5005107;28;19926;-69
2023/04/15 06:16:53;;;;;;;;;;;6.60;99.90;;;;;;5003157;28;19930;-69
2023/04/15 06:19:19;;;;;;;;;;;6.60;99.90;;;;;;5008255;28;19929;-69
2023/04/15 06:21:45;;;;;;;;;;;6.70;99.90;;;;;;5002427;28;20392;-69
2023/04/15 06:24:11;;;;;;;;;;;6.70;99.90;;;;;;5010844;28;19925;-69
2023/04/15 06:26:36;;;;;;;;;;;6.80;99.90;;;;;;5003822;28;19930;-69
2023/04/15 06:29:02;;;;;;;;;;;6.90;99.90;;;;;;5006042;28;19930;-69
2023/04/15 06:31:27;;;;;;;;;;;7.00;99.90;;;;;;5006093;28;20383;-69
2023/04/15 06:33:53;;;;;;;;;;;7.10;99.90;;;;;;5010323;28;20274;-69
2023/04/15 06:36:18;;;;;;;;;;;7.20;99.90;;;;;;5009982;28;20442;-69
2023/04/15 06:38:44;;;;;;;;;;;7.40;99.90;;;;;;5019614;28;19932;-69
2023/04/15 06:41:09;;;;;;;;;;;7.50;99.90;;;;;;5017917;28;19932;-70
2023/04/15 06:43:35;;;;;;;;;;;7.60;99.90;;;;;;5010048;28;20270;-69
2023/04/15 06:46:01;;;;;;;;;;;7.80;99.90;;;;;;5009458;28;19925;-70
2023/04/15 06:48:26;;;;;;;;;;;7.80;99.90;;;;;;5013397;28;19933;-70
2023/04/15 06:50:52;;;;;;;;;;;7.90;99.90;;;;;;5010490;28;19926;-70
2023/04/15 06:53:17;;;;;;;;;;;8.00;99.90;;;;;;5010854;28;19931;-69
2023/04/15 06:55:43;;;;;;;;;;;8.00;99.90;;;;;;5013728;28;19925;-70
2023/04/15 06:58:08;;;;;;;;;;;8.10;99.90;;;;;;5011202;28;19980;-70
2023/04/15 07:00:34;;;;;;;;;;;8.20;99.90;;;;;;5014017;28;19948;-70
2023/04/15 07:03:02;;;;;;;;;;;8.30;99.90;;;;;;5011836;28;19925;-68
2023/04/15 07:05:31;;;;;;;;;;;8.30;99.90;;;;;;5007176;28;19929;-70
2023/04/15 07:07:56;;;;;;;;;;;8.30;99.90;;;;;;5011969;28;19975;-70
2023/04/15 07:10:22;;;;;;;;;;;8.30;99.90;;;;;;5010729;28;19968;-70
2023/04/15 07:12:49;;;;;;;;;;;8.40;99.90;;;;;;5009620;28;19983;-70
2023/04/15 07:15:15;;;;;;;;;;;8.30;99.90;;;;;;5011682;28;19932;-70
2023/04/15 07:17:42;;;;;;;;;;;9.20;99.90;;;;;;5006791;28;19934;-70
2023/04/15 07:20:07;;;;;;;;;;;9.10;99.90;;;;;;5009401;28;20299;-69
2023/04/15 07:22:33;;;;;;;;;;;8.50;99.90;;;;;;5000118;28;19933;-70
2023/04/15 07:24:59;;;;;;;;;;;8.70;99.90;;;;;;5024059;28;20020;-70
2023/04/15 07:27:25;;;;;;;;;;;8.50;99.90;;;;;;5011161;28;19926;-70
2023/04/15 07:29:51;;;;;;;;;;;8.60;99.90;;;;;;5000555;28;20302;-70
2023/04/15 07:32:16;;;;;;;;;;;8.60;99.90;;;;;;5010957;28;19952;-71
2023/04/15 07:34:43;;;;;;;;;;;8.50;99.90;;;;;;5003981;28;19926;-70
2023/04/15 07:37:08;;;;;;;;;;;8.60;99.90;;;;;;5008294;28;20283;-69
2023/04/15 07:39:34;;;;;;;;;;;8.60;99.90;;;;;;5000274;28;19933;-69
2023/04/15 07:41:59;;;;;;;;;;;8.60;99.90;;;;;;5003821;28;19926;-69
2023/04/15 07:44:25;;;;;;;;;;;8.50;99.90;;;;;;4999512;28;19926;-70
2023/04/15 07:46:51;;;;;;;;;;;8.70;99.90;;;;;;5014747;28;19930;-70
2023/04/15 07:49:18;;;;;;;;;;;8.60;99.90;;;;;;5013372;28;20012;-70
2023/04/15 07:51:43;;;;;;;;;;;8.60;99.90;;;;;;4999933;28;19925;-70
2023/04/15 07:54:09;;;;;;;;;;;8.70;99.90;;;;;;5012023;28;19925;-70
2023/04/15 07:56:35;;;;;;;;;;;8.80;99.90;;;;;;5001123;28;19925;-69
2023/04/15 07:59:04;;;;;;;;;;;8.80;99.90;;;;;;5012517;28;20074;-70
2023/04/15 08:01:30;;;;;;;;;;;8.90;99.90;;;;;;5007827;28;20314;-71
2023/04/15 08:03:56;;;;;;;;;;;9.00;99.90;;;;;;5013409;28;19926;-70
2023/04/15 08:06:22;;;;;;;;;;;9.00;99.90;;;;;;5010412;28;19926;-70
2023/04/15 08:08:47;;;;;;;;;;;8.90;99.90;;;;;;5013899;28;19932;-69
2023/04/15 08:11:13;;;;;;;;;;;8.90;99.90;;;;;;5012309;28;19931;-70
2023/04/15 08:13:38;;;;;;;;;;;8.80;99.90;;;;;;5005531;28;19972;-69
2023/04/15 08:16:13;;;;;;;;;;;8.90;99.90;;;;;;5010596;28;19926;-70
2023/04/15 08:18:38;;;;;;;;;;;8.80;99.90;;;;;;5009812;28;19929;-70
2023/04/15 08:21:04;;;;;;;;;;;8.80;99.90;;;;;;5014031;28;19932;-70
2023/04/15 08:23:30;;;;;;;;;;;8.80;99.90;;;;;;5007133;28;19949;-70
2023/04/15 08:25:56;;;;;;;;;;;8.70;99.90;;;;;;5009889;28;20290;-69
2023/04/15 08:28:21;;;;;;;;;;;8.80;99.90;;;;;;5010318;28;19933;-69
2023/04/15 08:30:47;;;;;;;;;;;8.70;99.90;;;;;;5008247;28;19931;-69
2023/04/15 08:33:12;;;;;;;;;;;8.60;99.90;;;;;;5010862;28;19948;-69
2023/04/15 08:35:38;;;;;;;;;;;8.60;99.90;;;;;;5001317;28;19926;-70
2023/04/15 08:38:03;;;;;;;;;;;8.60;99.90;;;;;;5008302;28;19979;-69
2023/04/15 08:40:35;;;;;;;;;;;8.60;99.90;;;;;;5011418;28;20337;-69
2023/04/15 08:43:01;;;;;;;;;;;8.50;99.90;;;;;;5008608;28;20291;-69
2023/04/15 08:45:28;;;;;;;;;;;8.50;99.90;;;;;;5000927;28;20390;-69
2023/04/15 08:47:55;;;;;;;;;;;8.50;99.90;;;;;;5012496;28;19930;-69
2023/04/15 08:50:21;;;;;;;;;;;8.60;99.90;;;;;;5003114;28;19926;-69
2023/04/15 08:52:47;;;;;;;;;;;8.60;99.90;;;;;;5011350;28;20435;-69
2023/04/15 08:55:12;;;;;;;;;;;8.60;99.90;;;;;;5013401;28;20093;-69
2023/04/15 08:57:38;;;;;;;;;;;8.60;99.90;;;;;;5011997;28;20296;-70
2023/04/15 09:00:04;;;;;;;;;;;8.60;99.90;;;;;;5012406;28;19933;-69
2023/04/15 09:02:30;;;;;;;;;;;8.70;99.90;;;;;;5010709;28;19929;-69
2023/04/15 09:04:56;;;;;;;;;;;8.60;99.90;;;;;;5011570;28;19925;-69
2023/04/15 09:07:22;;;;;;;;;;;8.60;99.90;;;;;;5010506;28;19932;-69
2023/04/15 09:09:47;;;;;;;;;;;8.70;99.90;;;;;;5012184;28;20020;-69
2023/04/15 09:12:13;;;;;;;;;;;8.70;99.90;;;;;;5005313;28;19972;-70
2023/04/15 09:14:39;;;;;;;;;;;8.70;99.90;;;;;;4993163;28;19988;-69
2023/04/15 09:17:04;;;;;;;;;;;8.70;99.90;;;;;;5003235;28;19925;-69
2023/04/15 09:19:32;;;;;;;;;;;8.80;99.90;;;;;;5008729;28;19932;-69
2023/04/15 09:21:58;;;;;;;;;;;8.90;99.90;;;;;;5008304;28;19933;-69
2023/04/15 09:24:24;;;;;;;;;;;8.90;99.90;;;;;;5002047;28;19926;-69
2023/04/15 09:26:54;;;;;;;;;;;8.80;99.90;;;;;;5011321;28;19925;-69
2023/04/15 09:29:23;;;;;;;;;;;8.90;99.90;;;;;;5010215;28;19932;-70
2023/04/15 09:31:48;;;;;;;;;;;9.00;99.90;;;;;;5006351;28;20379;-70
2023/04/15 09:34:14;;;;;;;;;;;9.10;99.90;;;;;;5010919;28;19930;-69
2023/04/15 09:36:55;;;;;;;;;;;9.20;99.90;;;;;;5004214;28;19926;-70
2023/04/15 09:39:21;;;;;;;;;;;9.20;99.90;;;;;;5008963;28;19925;-69
2023/04/15 09:42:02;;;;;;;;;;;9.30;99.90;;;;;;5009586;28;20338;-69
2023/04/15 09:44:28;;;;;;;;;;;9.40;99.90;;;;;;5001615;28;19926;-69
2023/04/15 09:46:53;;;;;;;;;;;9.40;99.90;;;;;;5008333;28;19937;-69
2023/04/15 09:49:19;;;;;;;;;;;9.40;99.90;;;;;;5009689;28;19926;-69
2023/04/15 09:51:45;;;;;;;;;;;9.20;99.90;;;;;;5005469;28;19929;-69
2023/04/15 09:54:11;;;;;;;;;;;9.20;99.90;;;;;;5010720;28;20345;-69
2023/04/15 09:56:40;;;;;;;;;;;9.20;99.90;;;;;;5011202;28;19926;-70
2023/04/15 09:59:06;;;;;;;;;;;9.20;99.90;;;;;;5009988;28;19925;-69
2023/04/15 10:01:31;;;;;;;;;;;9.20;99.90;;;;;;5015907;28;19932;-69
2023/04/15 10:03:57;;;;;;;;;;;9.30;99.90;;;;;;5013019;28;19925;-72
2023/04/15 10:06:25;;;;;;;;;;;9.40;99.90;;;;;;5015247;28;19971;-70
2023/04/15 10:08:51;;;;;;;;;;;9.40;99.90;;;;;;5009647;28;19972;-69
2023/04/15 10:11:17;;;;;;;;;;;9.50;99.90;;;;;;5006203;28;19972;-69
2023/04/15 10:13:43;;;;;;;;;;;9.50;99.90;;;;;;5016269;28;19929;-69
2023/04/15 10:16:10;;;;;;;;;;;9.40;99.90;;;;;;5013945;28;19925;-69
2023/04/15 10:18:39;;;;;;;;;;;9.40;99.90;;;;;;5012027;28;19925;-69
2023/04/15 10:21:05;;;;;;;;;;;9.40;99.90;;;;;;5010195;28;19925;-69
2023/04/15 10:23:31;;;;;;;;;;;9.40;99.90;;;;;;5005577;28;20019;-70
2023/04/15 10:25:57;;;;;;;;;;;9.20;99.90;;;;;;5008087;28;19929;-69
2023/04/15 10:28:23;;;;;;;;;;;9.50;99.90;;;;;;5014079;28;20405;-69
2023/04/15 10:30:49;;;;;;;;;;;9.30;99.90;;;;;;5001632;28;19926;-69
2023/04/15 10:33:18;;;;;;;;;;;9.20;99.90;;;;;;5011306;28;19925;-69
2023/04/15 10:35:46;;;;;;;;;;;9.20;99.90;;;;;;5015574;28;19925;-69
2023/04/15 10:38:30;;;;;;;;;;;9.30;99.90;;;;;;5007409;28;20406;-70
2023/04/15 10:41:11;;;;;;;;;;;9.20;99.90;;;;;;4996644;28;20145;-69
2023/04/15 10:43:36;;;;;;;;;;;9.30;99.90;;;;;;5012469;28;19925;-69
2023/04/15 10:46:03;;;;;;;;;;;9.20;99.90;;;;;;5013919;28;19932;-69
2023/04/15 10:48:29;;;;;;;;;;;9.20;99.90;;;;;;5003953;28;20013;-69
2023/04/15 10:50:56;;;;;;;;;;;9.20;99.90;;;;;;5014856;28;20020;-69
2023/04/15 10:53:28;;;;;;;;;;;9.20;99.90;;;;;;5007055;28;19979;-69
2023/04/15 10:55:53;;;;;;;;;;;9.20;99.90;;;;;;5009364;28;19977;-69
2023/04/15 10:58:22;;;;;;;;;;;9.20;99.90;;;;;;5008724;28;19976;-69
2023/04/15 11:00:51;;;;;;;;;;;9.30;99.90;;;;;;5011225;28;19929;-69
2023/04/15 11:03:32;;;;;;;;;;;9.30;99.90;;;;;;5009110;28;19952;-69
2023/04/15 11:05:58;;;;;;;;;;;9.20;99.90;;;;;;5020815;28;20004;-69
2023/04/15 11:08:43;;;;;;;;;;;9.20;99.90;;;;;;5009860;28;20025;-69
2023/04/15 11:11:09;;;;;;;;;;;9.20;99.90;;;;;;5012015;28;20020;-70
2023/04/15 11:13:35;;;;;;;;;;;9.20;99.90;;;;;;5013004;28;20005;-69
2023/04/15 11:16:01;;;;;;;;;;;9.20;99.90;;;;;;5014133;28;19996;-69
2023/04/15 11:18:29;;;;;;;;;;;9.30;99.90;;;;;;5012480;28;19932;-69
2023/04/15 11:20:58;;;;;;;;;;;9.40;99.90;;;;;;5011735;28;19925;-69
2023/04/15 11:23:50;;;;;;;;;;;9.40;99.90;;;;;;5007143;28;19933;-69
2023/04/15 11:26:16;;;;;;;;;;;9.40;99.90;;;;;;4997641;28;19933;-70
2023/04/15 11:28:43;;;;;;;;;;;9.40;99.90;;;;;;5008550;28;19926;-69
2023/04/15 11:31:16;;;;;;;;;;;9.50;99.90;;;;;;5003735;28;19925;-70
2023/04/15 11:33:45;;;;;;;;;;;9.40;99.90;;;;;;5012170;28;20416;-70
2023/04/15 11:36:10;;;;;;;;;;;9.50;99.90;;;;;;5014317;28;20031;-71
2023/04/15 11:38:36;;;;;;;;;;;9.50;99.90;;;;;;5013130;28;19929;-71
2023/04/15 11:41:02;;;;;;;;;;;9.50;99.90;;;;;;5012960;28;19925;-70
2023/04/15 11:43:30;;;;;;;;;;;9.50;99.90;;;;;;5005812;28;19941;-70
2023/04/15 11:45:57;;;;;;;;;;;9.40;99.90;;;;;;5011183;28;19973;-70
2023/04/15 11:48:23;;;;;;;;;;;9.40;99.90;;;;;;5015993;28;19925;-70
2023/04/15 11:50:56;;;;;;;;;;;9.40;99.90;;;;;;5014082;28;19927;-70
2023/04/15 11:53:22;;;;;;;;;;;9.50;99.90;;;;;;5010997;28;19948;-70
2023/04/15 11:55:49;;;;;;;;;;;9.50;99.90;;;;;;5011537;28;19929;-70
2023/04/15 11:58:17;;;;;;;;;;;9.50;99.90;;;;;;5014185;28;19925;-70
2023/04/15 12:01:12;;;;;;;;;;;9.40;99.90;;;;;;5027793;28;19980;-69
2023/04/15 12:03:42;;;;;;;;;;;9.30;99.90;;;;;;5007882;28;19926;-69
2023/04/15 12:06:20;;;;;;;;;;;9.30;99.90;;;;;;5013187;28;20359;-69
2023/04/15 12:08:54;;;;;;;;;;;9.30;99.90;;;;;;5005138;28;19929;-69
2023/04/15 12:11:26;;;;;;;;;;;9.40;99.90;;;;;;5009847;28;19977;-69
2023/04/15 12:13:57;;;;;;;;;;;9.40;99.90;;;;;;5005131;28;19969;-68
2023/04/15 12:16:23;;;;;;;;;;;9.40;99.90;;;;;;5010558;28;19932;-68
2023/04/15 12:18:54;;;;;;;;;;;9.40;99.90;;;;;;5004330;28;19926;-70
2023/04/15 12:21:24;;;;;;;;;;;9.50;99.90;;;;;;5004674;28;20316;-69
2023/04/15 12:23:50;;;;;;;;;;;9.40;99.90;;;;;;5009585;28;19925;-70
2023/04/15 12:26:17;;;;;;;;;;;9.40;99.90;;;;;;5013286;28;19925;-69
2023/04/15 12:28:42;;;;;;;;;;;9.40;99.90;;;;;;5007211;28;20479;-69
2023/04/15 12:31:12;;;;;;;;;;;9.40;99.90;;;;;;5003466;28;19925;-69
2023/04/15 12:33:38;;;;;;;;;;;9.30;99.90;;;;;;5007274;28;19955;-69
2023/04/15 12:36:04;;;;;;;;;;;9.30;99.90;;;;;;5010123;28;19925;-70
2023/04/15 12:38:30;;;;;;;;;;;9.20;99.90;;;;;;5000396;28;19971;-69
2023/04/15 12:40:57;;;;;;;;;;;9.40;99.90;;;;;;5012036;28;20394;-69
2023/04/15 12:43:22;;;;;;;;;;;9.30;99.90;;;;;;5025282;28;19926;-70
2023/04/15 12:45:48;;;;;;;;;;;9.20;99.90;;;;;;5006169;28;19936;-69
2023/04/15 12:48:14;;;;;;;;;;;9.30;99.90;;;;;;5006879;28;19933;-70
2023/04/15 12:50:39;;;;;;;;;;;9.30;99.90;;;;;;5002922;28;19925;-70
2023/04/15 12:53:05;;;;;;;;;;;9.20;99.90;;;;;;5011539;28;19973;-70
2023/04/15 12:55:31;;;;;;;;;;;9.20;99.90;;;;;;4994885;28;20034;-69
2023/04/15 12:57:56;;;;;;;;;;;9.10;99.90;;;;;;5007186;28;20458;-70
2023/04/15 13:00:22;;;;;;;;;;;9.10;99.90;;;;;;5008391;28;19949;-71
2023/04/15 13:02:48;;;;;;;;;;;9.00;99.90;;;;;;5009957;28;19925;-70
2023/04/15 13:05:14;;;;;;;;;;;9.00;99.90;;;;;;5006989;28;19932;-70
2023/04/15 13:07:40;;;;;;;;;;;9.00;99.90;;;;;;5008123;28;20390;-70
2023/04/15 13:10:06;;;;;;;;;;;8.90;99.90;;;;;;5003970;28;19971;-70
2023/04/15 13:12:35;;;;;;;;;;;8.80;99.90;;;;;;5010676;28;20391;-70
2023/04/15 13:15:01;;;;;;;;;;;8.80;99.90;;;;;;5012741;28;20441;-70
2023/04/15 13:17:26;;;;;;;;;;;8.90;99.90;;;;;;5009759;28;19925;-70
2023/04/15 13:19:52;;;;;;;;;;;8.70;99.90;;;;;;5006460;28;20352;-71
2023/04/15 13:22:17;;;;;;;;;;;8.70;99.90;;;;;;5007416;28;19925;-71
2023/04/15 13:24:43;;;;;;;;;;;8.60;99.90;;;;;;5012244;28;19926;-70
2023/04/15 13:27:08;;;;;;;;;;;8.70;99.90;;;;;;5012114;28;20020;-69
2023/04/15 13:29:34;;;;;;;;;;;8.60;99.90;;;;;;5011896;28;19929;-69
2023/04/15 13:32:00;;;;;;;;;;;8.50;99.90;;;;;;5009069;28;20012;-69
2023/04/15 13:34:25;;;;;;;;;;;8.50;99.90;;;;;;5011449;28;20023;-70
2023/04/15 13:36:51;;;;;;;;;;;8.50;99.90;;;;;;5015116;28;20505;-71
2023/04/15 13:39:16;;;;;;;;;;;8.50;99.90;;;;;;5014740;28;19929;-70
2023/04/15 13:41:42;;;;;;;;;;;8.50;99.90;;;;;;5014591;28;19938;-72
2023/04/15 13:44:07;;;;;;;;;;;8.50;99.90;;;;;;5012343;28;20305;-69
2023/04/15 13:46:33;;;;;;;;;;;8.50;99.90;;;;;;4995278;28;19925;-69
2023/04/15 13:48:58;;;;;;;;;;;8.40;99.90;;;;;;4995484;28;19926;-69
2023/04/15 13:51:25;;;;;;;;;;;8.40;99.90;;;;;;5014000;28;19925;-69
2023/04/15 13:53:51;;;;;;;;;;;8.40;99.90;;;;;;5007517;28;20299;-69
2023/04/15 13:56:16;;;;;;;;;;;8.40;99.90;;;;;;5015042;28;19925;-69
2023/04/15 13:58:42;;;;;;;;;;;8.40;99.90;;;;;;5016767;28;19978;-69
2023/04/15 14:01:07;;;;;;;;;;;8.50;99.90;;;;;;5015038;28;20371;-70
2023/04/15 14:03:33;;;;;;;;;;;8.50;99.90;;;;;;5015183;28;20454;-69
2023/04/15 14:05:59;;;;;;;;;;;8.50;99.90;;;;;;5014031;28;19932;-70
2023/04/15 14:08:24;;;;;;;;;;;8.50;99.90;;;;;;5015139;28;20012;-70
2023/04/15 14:10:50;;;;;;;;;;;8.50;99.90;;;;;;5014445;28;19969;-70
2023/04/15 14:13:15;;;;;;;;;;;8.50;99.90;;;;;;5013365;28;19968;-70
2023/04/15 14:15:41;;;;;;;;;;;8.50;99.90;;;;;;5007293;28;20003;-70
2023/04/15 14:18:06;;;;;;;;;;;8.50;99.90;;;;;;5004183;28;19929;-71
2023/04/15 14:20:32;;;;;;;;;;;8.50;99.90;;;;;;5013511;28;19930;-71
2023/04/15 14:22:58;;;;;;;;;;;8.50;99.90;;;;;;5013855;28;20457;-71
2023/04/15 14:25:23;;;;;;;;;;;8.50;99.90;;;;;;5015080;28;19925;-70
2023/04/15 14:27:49;;;;;;;;;;;8.50;99.90;;;;;;5008063;28;19926;-70